createdAt,value
2018-09-04T00:01:34.742Z,101644.91
2018-09-04T00:04:02.444Z,101652.72
2018-09-04T00:06:30.171Z,101657.12
2018-09-04T00:08:57.860Z,101656.55
2018-09-04T00:11:25.560Z,101663.07
2018-09-04T00:13:53.260Z,101665.20
2018-09-04T00:16:21.324Z,101665.95
2018-09-04T00:18:49.012Z,101660.95
2018-09-04T00:21:16.699Z,101664.74
2018-09-04T00:23:44.399Z,101665.00
2018-09-04T00:26:12.052Z,101663.73
2018-09-04T00:28:39.716Z,101664.08
2018-09-04T00:31:07.403Z,101661.90
2018-09-04T00:33:35.124Z,101664.31
2018-09-04T00:36:02.822Z,101659.80
2018-09-04T00:38:30.561Z,101658.11
2018-09-04T00:40:58.255Z,101663.26
2018-09-04T00:43:25.942Z,101662.97
2018-09-04T00:45:53.642Z,101666.08
2018-09-04T00:48:21.443Z,101668.74
2018-09-04T00:50:50.044Z,101666.83
2018-09-04T00:53:17.732Z,101668.78
2018-09-04T00:55:45.455Z,101663.25
2018-09-04T00:58:13.325Z,101656.34
2018-09-04T01:00:41.080Z,101664.07
2018-09-04T01:03:08.753Z,101663.53
2018-09-04T01:05:36.468Z,101667.02
2018-09-04T01:08:04.216Z,101663.03
2018-09-04T01:10:31.885Z,101661.56
2018-09-04T01:12:59.591Z,101670.21
2018-09-04T01:15:27.319Z,101661.72
2018-09-04T01:17:54.989Z,101665.30
2018-09-04T01:20:22.760Z,101666.58
2018-09-04T01:22:50.492Z,101659.44
2018-09-04T01:25:18.192Z,101663.84
2018-09-04T01:27:45.851Z,101659.85
2018-09-04T01:30:13.560Z,101652.28
2018-09-04T01:32:41.235Z,101651.73
2018-09-04T01:35:08.951Z,101656.55
2018-09-04T01:37:36.624Z,101654.94
2018-09-04T01:40:04.400Z,101652.28
2018-09-04T01:42:32.118Z,101649.34
2018-09-04T01:44:59.846Z,101661.52
2018-09-04T01:47:27.516Z,101661.00
2018-09-04T01:49:55.211Z,101654.35
2018-09-04T01:52:23.015Z,101657.52
2018-09-04T01:54:50.699Z,101653.20
2018-09-04T01:57:18.375Z,101654.53
2018-09-04T01:59:46.081Z,101659.85
2018-09-04T02:02:13.767Z,101653.61
2018-09-04T02:04:41.468Z,101654.48
2018-09-04T02:07:09.154Z,101658.11
2018-09-04T02:09:36.864Z,101661.72
2018-09-04T02:12:04.567Z,101662.97
2018-09-04T02:14:32.287Z,101663.05
2018-09-04T02:16:59.967Z,101663.84
2018-09-04T02:19:27.635Z,101656.40
2018-09-04T02:21:55.355Z,101660.85
2018-09-04T02:24:23.039Z,101667.17
2018-09-04T02:26:50.692Z,101666.34
2018-09-04T02:29:18.379Z,101659.41
2018-09-04T02:31:46.071Z,101663.03
2018-09-04T02:34:13.792Z,101661.88
2018-09-04T02:36:41.540Z,101658.01
2018-09-04T02:39:10.940Z,101657.47
2018-09-04T02:41:38.613Z,101662.33
2018-09-04T02:44:06.619Z,101659.67
2018-09-04T02:46:34.760Z,101653.23
2018-09-04T02:49:02.447Z,101655.48
2018-09-04T02:51:30.134Z,101658.05
2018-09-04T02:53:58.089Z,101661.66
2018-09-04T02:56:25.787Z,101661.72
2018-09-04T02:58:53.591Z,101661.84
2018-09-04T03:01:21.329Z,101662.84
2018-09-04T03:03:49.012Z,101667.45
2018-09-04T03:06:16.683Z,101666.78
2018-09-04T03:08:44.424Z,101666.50
2018-09-04T03:11:12.093Z,101666.25
2018-09-04T03:13:39.762Z,101666.66
2018-09-04T03:16:07.616Z,101665.58
2018-09-04T03:18:35.300Z,101660.77
2018-09-04T03:21:02.993Z,101658.59
2018-09-04T03:23:30.707Z,101660.55
2018-09-04T03:25:58.424Z,101667.31
2018-09-04T03:28:26.111Z,101664.81
2018-09-04T03:30:53.905Z,101663.56
2018-09-04T03:33:21.602Z,101662.69
2018-09-04T03:35:49.291Z,101665.59
2018-09-04T03:38:17.073Z,101666.28
2018-09-04T03:40:44.766Z,101669.20
2018-09-04T03:43:12.439Z,101673.77
2018-09-04T03:45:40.134Z,101670.31
2018-09-04T03:48:08.628Z,101675.44
2018-09-04T03:50:36.947Z,101671.49
2018-09-04T03:53:04.816Z,101673.05
2018-09-04T03:55:32.502Z,101673.69
2018-09-04T03:58:00.228Z,101673.34
2018-09-04T04:00:27.891Z,101682.38
2018-09-04T04:02:55.609Z,101687.45
2018-09-04T04:05:23.307Z,101689.95
2018-09-04T04:07:51.004Z,101682.16
2018-09-04T04:10:18.763Z,101685.27
2018-09-04T04:12:46.482Z,101683.18
2018-09-04T04:15:14.163Z,101685.98
2018-09-04T04:17:41.907Z,101681.23
2018-09-04T04:20:09.716Z,101679.56
2018-09-04T04:22:37.393Z,101683.16
2018-09-04T04:25:05.199Z,101681.55
2018-09-04T04:27:32.891Z,101680.41
2018-09-04T04:30:00.639Z,101682.78
2018-09-04T04:32:28.408Z,101689.06
2018-09-04T04:34:56.240Z,101691.61
2018-09-04T04:37:23.973Z,101693.14
2018-09-04T04:39:51.707Z,101688.16
2018-09-04T04:42:19.383Z,101686.30
2018-09-04T04:44:47.084Z,101682.56
2018-09-04T04:47:14.880Z,101676.97
2018-09-04T04:49:42.552Z,101673.34
2018-09-04T04:52:10.324Z,101679.61
2018-09-04T04:54:38.040Z,101679.50
2018-09-04T04:57:05.736Z,101686.78
2018-09-04T04:59:33.451Z,101688.33
2018-09-04T05:02:01.163Z,101696.83
2018-09-04T05:04:28.831Z,101695.80
2018-09-04T05:06:56.620Z,101698.58
2018-09-04T05:09:24.375Z,101698.19
2018-09-04T05:11:52.039Z,101692.13
2018-09-04T05:14:19.732Z,101688.09
2018-09-04T05:16:47.427Z,101691.14
2018-09-04T05:19:15.148Z,101690.80
2018-09-04T05:21:42.847Z,101684.98
2018-09-04T05:24:10.572Z,101686.06
2018-09-04T05:26:38.280Z,101680.36
2018-09-04T05:29:06.050Z,101683.37
2018-09-04T05:31:38.395Z,101683.34
2018-09-04T05:34:06.210Z,101690.02
2018-09-04T05:36:33.895Z,101694.79
2018-09-04T05:39:01.631Z,101692.00
2018-09-04T05:41:29.349Z,101693.52
2018-09-04T05:43:58.867Z,101690.26
2018-09-04T05:46:57.372Z,101691.13
2018-09-04T05:49:28.215Z,101693.28
2018-09-04T05:51:55.964Z,101693.67
2018-09-04T05:54:23.788Z,101698.41
2018-09-04T05:56:51.556Z,101694.16
2018-09-04T05:59:19.304Z,101704.72
2018-09-04T06:01:46.984Z,101699.34
2018-09-04T06:04:14.728Z,101689.44
2018-09-04T06:06:42.412Z,101688.44
2018-09-04T06:09:10.157Z,101689.78
2018-09-04T06:11:37.843Z,101691.01
2018-09-04T06:14:05.580Z,101692.98
2018-09-04T06:16:33.272Z,101695.58
2018-09-04T06:19:01.007Z,101685.59
2018-09-04T06:21:28.708Z,101679.28
2018-09-04T06:23:56.464Z,101691.05
2018-09-04T06:26:24.181Z,101687.45
2018-09-04T06:28:51.897Z,101684.47
2018-09-04T06:31:19.632Z,101680.63
2018-09-04T06:33:47.324Z,101680.86
2018-09-04T06:36:15.052Z,101689.58
2018-09-04T06:38:42.812Z,101685.30
2018-09-04T06:41:10.520Z,101688.02
2018-09-04T06:43:38.235Z,101682.84
2018-09-04T06:46:05.983Z,101691.05
2018-09-04T06:48:34.220Z,101690.21
2018-09-04T06:51:01.915Z,101700.69
2018-09-04T06:53:29.628Z,101691.98
2018-09-04T06:55:57.361Z,101685.70
2018-09-04T06:58:25.924Z,101687.53
2018-09-04T07:00:53.672Z,101674.91
2018-09-04T07:03:21.360Z,101681.94
2018-09-04T07:05:49.116Z,101686.02
2018-09-04T07:08:16.876Z,101689.03
2018-09-04T07:10:44.588Z,101684.25
2018-09-04T07:13:12.328Z,101678.38
2018-09-04T07:15:40.025Z,101673.50
2018-09-04T07:18:07.766Z,101673.75
2018-09-04T07:20:35.552Z,101673.50
2018-09-04T07:23:03.296Z,101677.13
2018-09-04T07:25:30.977Z,101668.22
2018-09-04T07:27:58.709Z,101672.70
2018-09-04T07:30:26.408Z,101677.30
2018-09-04T07:32:54.314Z,101679.98
2018-09-04T07:35:22.349Z,101680.64
2018-09-04T07:37:50.052Z,101675.02
2018-09-04T07:40:17.836Z,101671.52
2018-09-04T07:42:45.535Z,101668.38
2018-09-04T07:45:13.228Z,101675.80
2018-09-04T07:47:41.011Z,101670.83
2018-09-04T07:50:09.572Z,101672.95
2018-09-04T07:52:37.299Z,101668.40
2018-09-04T07:55:05.134Z,101680.17
2018-09-04T07:57:32.856Z,101676.11
2018-09-04T08:00:00.577Z,101676.88
2018-09-04T08:02:28.348Z,101682.70
2018-09-04T08:04:56.051Z,101684.37
2018-09-04T08:07:23.750Z,101675.61
2018-09-04T08:09:51.496Z,101683.68
2018-09-04T08:12:19.247Z,101678.77
2018-09-04T08:14:47.048Z,101682.67
2018-09-04T08:17:14.788Z,101676.98
2018-09-04T08:19:42.520Z,101682.28
2018-09-04T08:22:10.268Z,101676.05
2018-09-04T08:24:37.987Z,101673.66
2018-09-04T08:27:06.028Z,101681.39
2018-09-04T08:29:33.768Z,101674.74
2018-09-04T08:32:01.444Z,101680.27
2018-09-04T08:34:29.203Z,101680.36
2018-09-04T08:36:56.953Z,101674.78
2018-09-04T08:39:24.644Z,101679.39
2018-09-04T08:41:52.386Z,101677.78
2018-09-04T08:44:20.136Z,101674.95
2018-09-04T08:46:47.840Z,101672.70
2018-09-04T08:49:16.524Z,101673.12
2018-09-04T08:51:44.222Z,101669.36
2018-09-04T08:54:11.981Z,101670.80
2018-09-04T08:56:39.676Z,101666.44
2018-09-04T08:59:07.368Z,101668.00
2018-09-04T09:01:35.077Z,101668.59
2018-09-04T09:04:02.805Z,101673.41
2018-09-04T09:06:30.539Z,101663.87
2018-09-04T09:08:58.228Z,101664.20
2018-09-04T09:11:25.944Z,101663.58
2018-09-04T09:13:53.656Z,101664.11
2018-09-04T09:16:21.355Z,101666.28
2018-09-04T09:18:49.103Z,101663.66
2018-09-04T09:21:16.840Z,101665.31
2018-09-04T09:23:44.528Z,101656.57
2018-09-04T09:26:12.312Z,101662.97
2018-09-04T09:28:40.035Z,101659.50
2018-09-04T09:31:07.788Z,101661.27
2018-09-04T09:33:35.517Z,101660.62
2018-09-04T09:36:03.231Z,101653.42
2018-09-04T09:38:30.961Z,101650.95
2018-09-04T09:40:58.701Z,101651.23
2018-09-04T09:43:26.551Z,101645.44
2018-09-04T09:45:54.257Z,101642.78
2018-09-04T09:48:22.040Z,101643.95
2018-09-04T09:50:49.773Z,101637.73
2018-09-04T09:53:17.606Z,101645.31
2018-09-04T09:55:45.312Z,101634.31
2018-09-04T09:58:13.000Z,101633.81
2018-09-04T10:00:46.288Z,101627.25
2018-09-04T10:03:20.295Z,101632.37
2018-09-04T10:05:48.067Z,101632.93
2018-09-04T10:08:15.771Z,101633.95
2018-09-04T10:10:43.564Z,101634.37
2018-09-04T10:13:11.323Z,101632.51
2018-09-04T10:15:39.076Z,101635.10
2018-09-04T10:18:06.776Z,101631.96
2018-09-04T10:20:34.516Z,101628.84
2018-09-04T10:23:02.307Z,101621.66
2018-09-04T10:25:30.032Z,101627.52
2018-09-04T10:27:57.752Z,101623.17
2018-09-04T10:30:25.505Z,101630.56
2018-09-04T10:32:54.035Z,101632.29
2018-09-04T10:35:22.363Z,101636.60
2018-09-04T10:37:50.789Z,101628.45
2018-09-04T10:40:24.423Z,101625.94
2018-09-04T10:42:52.420Z,101624.52
2018-09-04T10:45:25.617Z,101623.37
2018-09-04T10:47:53.730Z,101627.73
2018-09-04T10:50:21.893Z,101631.27
2018-09-04T10:52:49.740Z,101630.92
2018-09-04T10:55:17.565Z,101627.08
2018-09-04T10:57:45.458Z,101625.25
2018-09-04T11:00:14.344Z,101622.08
2018-09-04T11:02:42.157Z,101623.44
2018-09-04T11:05:09.996Z,101627.34
2018-09-04T11:07:37.773Z,101620.66
2018-09-04T11:10:05.618Z,101623.86
2018-09-04T11:12:33.416Z,101631.55
2018-09-04T11:15:01.156Z,101642.17
2018-09-04T11:17:28.860Z,101647.83
2018-09-04T11:19:56.593Z,101641.22
2018-09-04T11:22:24.374Z,101644.86
2018-09-04T11:24:52.116Z,101650.52
2018-09-04T11:27:19.815Z,101653.94
2018-09-04T11:29:47.516Z,101648.99
2018-09-04T11:32:15.274Z,101649.28
2018-09-04T11:34:43.019Z,101650.30
2018-09-04T11:37:10.788Z,101648.56
2018-09-04T11:39:38.548Z,101656.27
2018-09-04T11:42:06.449Z,101666.89
2018-09-04T11:44:34.163Z,101667.94
2018-09-04T11:47:03.153Z,101666.22
2018-09-04T11:49:30.728Z,101665.27
2018-09-04T11:51:58.531Z,101673.95
2018-09-04T11:54:26.328Z,101661.84
2018-09-04T11:56:54.092Z,101670.80
2018-09-04T11:59:21.914Z,101668.20
2018-09-04T12:01:53.355Z,101669.88
2018-09-04T12:04:21.072Z,101666.56
2018-09-04T12:06:48.807Z,101674.57
2018-09-04T12:09:16.715Z,101676.38
2018-09-04T12:11:51.952Z,101680.36
2018-09-04T12:14:19.685Z,101682.69
2018-09-04T12:16:47.369Z,101681.16
2018-09-04T12:19:15.147Z,101684.87
2018-09-04T12:21:42.860Z,101679.50
2018-09-04T12:24:10.632Z,101678.74
2018-09-04T12:26:38.355Z,101690.03
2018-09-04T12:29:06.433Z,101691.55
2018-09-04T12:31:34.269Z,101694.11
2018-09-04T12:34:02.171Z,101689.67
2018-09-04T12:36:29.849Z,101684.16
2018-09-04T12:38:57.741Z,101679.25
2018-09-04T12:41:25.512Z,101691.41
2018-09-04T12:43:53.248Z,101684.28
2018-09-04T12:46:20.957Z,101686.14
2018-09-04T12:48:50.732Z,101692.62
2018-09-04T12:51:18.512Z,101696.20
2018-09-04T12:53:46.469Z,101688.95
2018-09-04T12:56:14.240Z,101687.22
2018-09-04T12:58:41.997Z,101683.42
2018-09-04T13:01:09.826Z,101691.37
2018-09-04T13:03:37.616Z,101683.25
2018-09-04T13:06:05.453Z,101686.19
2018-09-04T13:08:33.643Z,101683.55
2018-09-04T13:11:01.352Z,101682.30
2018-09-04T13:13:29.164Z,101687.94
2018-09-04T13:15:58.407Z,101684.23
2018-09-04T13:18:27.125Z,101682.01
2018-09-04T13:21:01.705Z,101684.13
2018-09-04T13:23:29.923Z,101687.30
2018-09-04T13:25:57.661Z,101680.95
2018-09-04T13:28:25.484Z,101688.65
2018-09-04T13:30:53.319Z,101689.75
2018-09-04T13:33:21.013Z,101688.88
2018-09-04T13:35:48.738Z,101689.45
2018-09-04T13:38:16.503Z,101698.66
2018-09-04T13:40:44.265Z,101692.39
2018-09-04T13:43:12.036Z,101698.88
2018-09-04T13:45:39.792Z,101702.95
2018-09-04T13:48:07.527Z,101699.77
2018-09-04T13:50:35.281Z,101708.28
2018-09-04T13:53:03.043Z,101710.41
2018-09-04T13:55:30.771Z,101707.91
2018-09-04T13:57:58.508Z,101710.41
2018-09-04T14:00:26.632Z,101713.70
2018-09-04T14:02:54.415Z,101713.48
2018-09-04T14:05:22.118Z,101714.48
2018-09-04T14:07:49.823Z,101718.39
2018-09-04T14:10:17.602Z,101720.34
2018-09-04T14:12:45.321Z,101715.53
2018-09-04T14:15:13.069Z,101717.02
2018-09-04T14:17:40.828Z,101721.44
2018-09-04T14:20:08.559Z,101721.13
2018-09-04T14:22:36.339Z,101712.84
2018-09-04T14:25:04.148Z,101714.02
2018-09-04T14:27:31.863Z,101717.27
2018-09-04T14:30:16.349Z,101714.19
2018-09-04T14:32:27.392Z,101715.31
2018-09-04T14:34:55.108Z,101724.64
2018-09-04T14:37:22.856Z,101728.16
2018-09-04T14:39:55.593Z,101730.45
2018-09-04T14:42:18.320Z,101726.92
2018-09-04T14:44:46.043Z,101735.60
2018-09-04T14:47:13.873Z,101741.09
2018-09-04T14:49:41.589Z,101747.98
2018-09-04T14:52:09.284Z,101752.28
2018-09-04T14:54:37.063Z,101749.89
2018-09-04T14:57:04.848Z,101746.06
2018-09-04T14:59:32.658Z,101746.33
2018-09-04T15:02:00.428Z,101754.79
2018-09-04T15:04:28.144Z,101755.91
2018-09-04T15:06:55.860Z,101762.30
2018-09-04T15:09:23.616Z,101758.45
2018-09-04T15:11:51.319Z,101766.30
2018-09-04T15:14:19.039Z,101766.42
2018-09-04T15:16:46.969Z,101765.31
2018-09-04T15:19:14.655Z,101770.70
2018-09-04T15:21:42.389Z,101776.42
2018-09-04T15:24:10.133Z,101773.02
2018-09-04T15:26:37.837Z,101774.30
2018-09-04T15:29:05.540Z,101779.60
2018-09-04T15:31:33.344Z,101776.96
2018-09-04T15:34:01.088Z,101780.92
2018-09-04T15:36:28.919Z,101784.67
2018-09-04T15:38:56.624Z,101787.73
2018-09-04T15:41:24.359Z,101786.66
2018-09-04T15:43:52.085Z,101798.05
2018-09-04T15:46:19.810Z,101793.49
2018-09-04T15:48:52.055Z,101804.55
2018-09-04T15:51:19.760Z,101804.02
2018-09-04T15:53:47.478Z,101810.92
2018-09-04T15:56:15.265Z,101805.46
2018-09-04T15:58:42.939Z,101804.63
2018-09-04T16:01:10.655Z,101809.77
2018-09-04T16:03:38.401Z,101810.50
2018-09-04T16:06:05.892Z,101813.75
2018-09-04T16:08:33.617Z,101813.45
2018-09-04T16:11:01.393Z,101817.47
2018-09-04T16:13:29.092Z,101820.98
2018-09-04T16:15:56.845Z,101824.13
2018-09-04T16:18:24.627Z,101825.86
2018-09-04T16:20:52.354Z,101829.83
2018-09-04T16:23:20.076Z,101820.22
2018-09-04T16:25:47.880Z,101821.40
2018-09-04T16:28:15.579Z,101826.80
2018-09-04T16:30:43.312Z,101826.52
2018-09-04T16:33:11.081Z,101827.89
2018-09-04T16:35:38.883Z,101829.16
2018-09-04T16:38:06.590Z,101825.16
2018-09-04T16:40:41.011Z,101825.42
2018-09-04T16:43:08.692Z,101836.05
2018-09-04T16:45:36.400Z,101842.91
2018-09-04T16:48:04.185Z,101839.05
2018-09-04T16:50:31.900Z,101839.69
2018-09-04T16:52:59.600Z,101853.94
2018-09-04T16:55:27.312Z,101850.95
2018-09-04T16:57:55.067Z,101854.97
2018-09-04T17:00:22.773Z,101855.03
2018-09-04T17:02:50.556Z,101863.12
2018-09-04T17:05:18.277Z,101850.30
2018-09-04T17:07:46.018Z,101868.39
2018-09-04T17:10:13.748Z,101872.77
2018-09-04T17:12:41.471Z,101872.16
2018-09-04T17:15:09.264Z,101876.86
2018-09-04T17:17:37.026Z,101874.91
2018-09-04T17:20:05.026Z,101875.21
2018-09-04T17:22:32.818Z,101874.65
2018-09-04T17:25:00.580Z,101877.73
2018-09-04T17:27:28.300Z,101873.66
2018-09-04T17:29:55.997Z,101878.75
2018-09-04T17:32:23.787Z,101870.25
2018-09-04T17:34:51.499Z,101870.16
2018-09-04T17:37:19.430Z,101877.49
2018-09-04T17:39:47.452Z,101871.59
2018-09-04T17:42:15.171Z,101879.73
2018-09-04T17:44:42.927Z,101883.42
2018-09-04T17:47:10.618Z,101877.61
2018-09-04T17:49:38.380Z,101879.57
2018-09-04T17:52:06.168Z,101878.91
2018-09-04T17:54:33.940Z,101878.75
2018-09-04T17:57:01.651Z,101884.00
2018-09-04T17:59:29.343Z,101888.11
2018-09-04T18:01:57.096Z,101880.55
2018-09-04T18:04:24.824Z,101886.30
2018-09-04T18:06:52.564Z,101886.77
2018-09-04T18:09:20.287Z,101892.58
2018-09-04T18:11:48.090Z,101890.92
2018-09-04T18:14:15.800Z,101897.20
2018-09-04T18:16:43.581Z,101897.20
2018-09-04T18:19:11.328Z,101900.42
2018-09-04T18:21:39.194Z,101901.67
2018-09-04T18:24:07.036Z,101899.24
2018-09-04T18:26:34.900Z,101892.16
2018-09-04T18:29:02.664Z,101892.47
2018-09-04T18:31:30.392Z,101895.55
2018-09-04T18:33:58.128Z,101905.36
2018-09-04T18:36:25.816Z,101896.62
2018-09-04T18:38:53.688Z,101904.79
2018-09-04T18:41:21.347Z,101905.41
2018-09-04T18:43:49.068Z,101908.39
2018-09-04T18:46:16.772Z,101908.95
2018-09-04T18:48:44.595Z,101913.51
2018-09-04T18:51:12.304Z,101913.25
2018-09-04T18:53:40.085Z,101919.11
2018-09-04T18:56:07.812Z,101919.52
2018-09-04T18:58:35.561Z,101920.45
2018-09-04T19:01:03.324Z,101919.05
2018-09-04T19:03:31.044Z,101913.92
2018-09-04T19:05:58.792Z,101916.59
2018-09-04T19:08:26.509Z,101918.48
2018-09-04T19:10:54.219Z,101928.70
2018-09-04T19:13:22.006Z,101924.02
2018-09-04T19:15:49.708Z,101921.59
2018-09-04T19:18:17.449Z,101917.23
2018-09-04T19:20:45.209Z,101918.21
2018-09-04T19:23:12.918Z,101924.16
2018-09-04T19:25:40.638Z,101927.06
2018-09-04T19:28:08.372Z,101928.91
2018-09-04T19:30:36.108Z,101929.46
2018-09-04T19:33:03.879Z,101929.74
2018-09-04T19:35:31.612Z,101929.80
2018-09-04T19:37:59.331Z,101929.06
2018-09-04T19:40:27.070Z,101933.67
2018-09-04T19:42:54.778Z,101941.36
2018-09-04T19:45:22.623Z,101941.09
2018-09-04T19:47:50.383Z,101940.30
2018-09-04T19:50:18.222Z,101942.56
2018-09-04T19:52:45.934Z,101948.96
2018-09-04T19:55:13.708Z,101935.84
2018-09-04T19:57:41.363Z,101941.45
2018-09-04T20:00:09.700Z,101936.12
2018-09-04T20:02:37.448Z,101943.98
2018-09-04T20:05:05.781Z,101937.77
2018-09-04T20:07:33.498Z,101942.16
2018-09-04T20:10:01.235Z,101928.86
2018-09-04T20:12:28.944Z,101935.53
2018-09-04T20:14:56.701Z,101942.63
2018-09-04T20:17:24.468Z,101942.60
2018-09-04T20:19:53.317Z,101941.49
2018-09-04T20:22:21.058Z,101940.54
2018-09-04T20:24:48.799Z,101941.00
2018-09-04T20:27:16.502Z,101939.66
2018-09-04T20:29:54.061Z,101943.20
2018-09-04T20:32:21.868Z,101939.66
2018-09-04T20:34:49.582Z,101948.53
2018-09-04T20:37:17.440Z,101947.98
2018-09-04T20:39:46.192Z,101940.95
2018-09-04T20:42:13.968Z,101944.53
2018-09-04T20:44:41.682Z,101939.63
2018-09-04T20:47:09.495Z,101941.87
2018-09-04T20:49:37.216Z,101941.53
2018-09-04T20:52:04.956Z,101942.58
2018-09-04T20:54:32.712Z,101949.36
2018-09-04T20:57:35.800Z,101945.16
2018-09-04T21:00:16.538Z,101949.33
2018-09-04T21:02:55.700Z,101943.25
2018-09-04T21:05:34.691Z,101948.28
2018-09-04T21:08:17.998Z,101951.48
2018-09-04T21:10:46.598Z,101948.86
2018-09-04T21:13:14.760Z,101943.20
2018-09-04T21:15:42.641Z,101947.19
2018-09-04T21:18:10.523Z,101946.40
2018-09-04T21:20:38.455Z,101942.11
2018-09-04T21:23:06.327Z,101942.61
2018-09-04T21:25:34.072Z,101944.89
2018-09-04T21:28:01.798Z,101944.48
2018-09-04T21:30:29.580Z,101944.59
2018-09-04T21:32:57.320Z,101940.84
2018-09-04T21:35:25.454Z,101945.87
2018-09-04T21:37:53.253Z,101951.95
2018-09-04T21:40:20.942Z,101946.67
2018-09-04T21:42:48.689Z,101949.41
2018-09-04T21:45:16.421Z,101946.86
2018-09-04T21:47:44.150Z,101959.83
2018-09-04T21:50:11.953Z,101952.42
2018-09-04T21:52:39.679Z,101958.24
2018-09-04T21:55:07.487Z,101957.91
2018-09-04T21:57:35.216Z,101960.27
2018-09-04T22:00:03.016Z,101955.13
2018-09-04T22:02:30.704Z,101960.61
2018-09-04T22:04:58.416Z,101964.83
2018-09-04T22:07:26.126Z,101960.57
2018-09-04T22:09:53.831Z,101967.34
2018-09-04T22:12:21.615Z,101969.31
2018-09-04T22:14:49.407Z,101970.89
2018-09-04T22:17:17.106Z,101971.92
2018-09-04T22:19:44.776Z,101969.48
2018-09-04T22:22:13.126Z,101970.61
2018-09-04T22:24:40.828Z,101972.13
2018-09-04T22:27:09.712Z,101971.00
2018-09-04T22:29:40.964Z,101967.16
2018-09-04T22:32:08.995Z,101977.52
2018-09-04T22:34:36.708Z,101976.29
2018-09-04T22:37:04.460Z,101968.35
2018-09-04T22:39:32.264Z,101970.70
2018-09-04T22:41:59.962Z,101967.27
2018-09-04T22:44:28.003Z,101967.90
2018-09-04T22:46:55.750Z,101971.05
2018-09-04T22:49:23.497Z,101975.20
2018-09-04T22:51:51.409Z,101974.08
2018-09-04T22:54:19.117Z,101966.28
2018-09-04T22:56:46.870Z,101978.50
2018-09-04T22:59:14.552Z,101974.84
2018-09-04T23:01:42.252Z,101975.95
2018-09-04T23:04:09.972Z,101977.92
2018-09-04T23:06:37.713Z,101976.01
2018-09-04T23:09:06.636Z,101973.64
2018-09-04T23:11:34.347Z,101979.20
2018-09-04T23:14:02.088Z,101980.80
2018-09-04T23:16:29.921Z,101976.58
2018-09-04T23:18:57.617Z,101980.17
2018-09-04T23:21:25.302Z,101986.95
2018-09-04T23:23:53.109Z,101979.23
2018-09-04T23:26:20.875Z,101981.91
2018-09-04T23:28:48.576Z,101977.60
2018-09-04T23:31:16.288Z,101982.55
2018-09-04T23:33:43.991Z,101984.77
2018-09-04T23:36:18.508Z,101972.95
2018-09-04T23:38:46.393Z,101977.47
2018-09-04T23:41:14.096Z,101974.30
2018-09-04T23:43:41.792Z,101965.09
2018-09-04T23:46:09.478Z,101966.34
2018-09-04T23:48:37.232Z,101963.67
2018-09-04T23:51:05.091Z,101972.05
2018-09-04T23:53:32.789Z,101973.86
2018-09-04T23:56:00.519Z,101966.80
2018-09-04T23:58:28.226Z,101964.64
